Time;durP1;ratioP1;P1;durP2;ratioP2;P2;SDS_P1;SDS_P2;PMS_P1;PMS_P2;Temp;Humidity;BMP_temperature;BMP_pressure;BME280_temperature;BME280_humidity;BME280_pressure;Samples;Min_cycle;Max_cycle;Signal;HPM_P1;HPM_P2
2022/11/30 00:06:46;;;;;;;8.77;3.97;;;;;;;;;;20988634;28;20213;-68
2022/11/30 00:16:47;;;;;;;9.23;4.03;;;;;;;;;;20988870;28;20206;-68
2022/11/30 00:26:49;;;;;;;5.47;2.90;;;;;;;;;;20969769;28;20305;-68
2022/11/30 00:36:51;;;;;;;5.47;3.40;;;;;;;;;;20968201;28;20275;-68
2022/11/30 00:46:53;;;;;;;9.70;4.90;;;;;;;;;;20986291;28;20221;-68
2022/11/30 00:56:55;;;;;;;8.63;4.33;;;;;;;;;;21030451;28;20259;-67
2022/11/30 01:06:57;;;;;;;8.40;3.43;;;;;;;;;;21042690;28;20614;-67
2022/11/30 01:16:59;;;;;;;7.53;3.03;;;;;;;;;;20984044;28;20205;-68
2022/11/30 01:27:01;;;;;;;7.10;3.63;;;;;;;;;;21045735;28;20290;-68
2022/11/30 01:37:03;;;;;;;8.23;3.70;;;;;;;;;;21049128;28;20601;-68
2022/11/30 01:47:08;;;;;;;4.73;2.53;;;;;;;;;;21031221;28;20294;-68
2022/11/30 01:57:19;;;;;;;7.37;3.73;;;7.40;99.90;;;;;;21079632;28;20719;-68
2022/11/30 02:07:22;;;;;;;9.67;3.50;;;;;;;;;;21081526;28;20592;-68
2022/11/30 02:17:37;;;;;;;6.47;3.60;;;7.30;99.90;;;;;;21063010;28;20208;-67
2022/11/30 02:27:42;;;;;;;8.70;4.70;;;;;;;;;;21079470;28;20280;-68
2022/11/30 02:37:44;;;;;;;6.77;4.03;;;7.30;99.90;;;;;;21080641;28;20208;-68
2022/11/30 02:47:53;;;;;;;7.43;3.77;;;7.30;99.90;;;;;;21079438;28;20216;-68
2022/11/30 02:57:55;;;;;;;6.27;3.93;;;;;;;;;;21077808;28;20208;-68
2022/11/30 03:07:57;;;;;;;8.80;3.30;;;;;;;;;;21077064;28;20220;-67
2022/11/30 03:18:01;;;;;;;7.23;4.27;;;;;;;;;;21078149;28;20220;-68
2022/11/30 03:28:02;;;;;;;8.83;4.27;;;;;;;;;;21050709;28;20590;-68
2022/11/30 03:38:04;;;;;;;9.50;4.23;;;;;;;;;;21051893;28;20279;-68
2022/11/30 03:48:06;;;;;;;7.03;3.83;;;;;;;;;;20990091;28;20279;-68
2022/11/30 03:58:07;;;;;;;7.50;3.53;;;;;;;;;;20971899;28;20221;-68
2022/11/30 04:08:09;;;;;;;9.20;3.70;;;;;;;;;;20989105;28;20279;-68
2022/11/30 04:18:11;;;;;;;9.73;4.23;;;;;;;;;;20987369;28;20213;-68
2022/11/30 04:28:13;;;;;;;6.90;3.67;;;;;;;;;;20987267;28;20213;-68
2022/11/30 04:38:15;;;;;;;7.63;3.50;;;;;;;;;;21019805;28;20306;-68
2022/11/30 04:48:18;;;;;;;8.47;3.80;;;;;;;;;;21063031;28;20236;-69
2022/11/30 04:58:20;;;;;;;8.70;4.07;;;;;;;;;;21069252;28;20227;-68
2022/11/30 05:08:21;;;;;;;4.50;3.07;;;;;;;;;;21065270;28;20228;-69
2022/11/30 05:18:23;;;;;;;7.90;4.00;;;;;;;;;;21067076;28;20293;-70
2022/11/30 05:28:25;;;;;;;8.93;3.77;;;;;;;;;;21067144;28;20232;-69
2022/11/30 05:38:27;;;;;;;6.47;3.87;;;;;;;;;;21030113;22;20233;-67
2022/11/30 05:48:29;;;;;;;10.40;4.83;;;;;;;;;;20983042;28;20306;-66
2022/11/30 05:58:31;;;;;;;7.70;4.50;;;6.40;99.90;;;;;;20983095;28;20595;-67
2022/11/30 06:08:33;;;;;;;7.47;3.77;;;;;;;;;;20984278;28;20687;-66
2022/11/30 06:18:34;;;;;;;10.13;4.30;;;;;;;;;;20979589;28;20258;-69
2022/11/30 06:28:36;;;;;;;6.87;3.97;;;;;;;;;;20963070;28;20220;-67
2022/11/30 06:38:38;;;;;;;8.40;5.10;;;;;;;;;;20984368;28;20229;-67
2022/11/30 06:48:40;;;;;;;8.43;4.43;;;;;;;;;;20996748;28;20213;-67
2022/11/30 06:58:42;;;;;;;8.23;4.27;;;;;;;;;;20995274;28;20221;-67
2022/11/30 07:08:44;;;;;;;7.67;4.20;;;;;;;;;;20994440;28;20631;-67
2022/11/30 07:18:46;;;;;;;8.73;4.60;;;;;;;;;;20993350;28;20239;-66
2022/11/30 07:28:50;;;;;;;9.30;4.63;;;;;;;;;;20974948;28;20235;-67
2022/11/30 07:38:51;;;;;;;8.13;4.63;;;;;;;;;;20991251;28;20286;-67
2022/11/30 07:48:53;;;;;;;9.80;4.53;;;;;;;;;;20990443;28;20217;-67
2022/11/30 07:58:56;;;;;;;10.10;4.83;;;;;;;;;;20982210;28;20598;-66
2022/11/30 08:08:59;;;;;;;9.67;4.47;;;;;;;;;;20978219;28;20248;-67
2022/11/30 08:19:01;;;;;;;10.53;4.83;;;;;;;;;;20986440;28;20216;-67
2022/11/30 08:29:03;;;;;;;7.97;4.37;;;;;;;;;;20986629;28;20213;-66
2022/11/30 08:39:05;;;;;;;7.33;4.43;;;;;;;;;;20986299;28;20251;-67
2022/11/30 08:49:07;;;;;;;9.63;4.30;;;;;;;;;;20985550;28;20209;-66
2022/11/30 08:59:09;;;;;;;10.67;4.60;;;;;;;;;;20984706;28;20288;-67
2022/11/30 09:09:10;;;;;;;6.73;4.07;;;;;;;;;;20966966;28;20310;-66
2022/11/30 09:19:13;;;;;;;8.80;4.10;;;;;;;;;;20982006;28;20287;-67
2022/11/30 09:29:15;;;;;;;9.50;4.20;;;;;;;;;;20983901;28;20252;-67
2022/11/30 09:39:16;;;;;;;4.83;3.30;;;;;;;;;;20982133;28;20590;-67
2022/11/30 09:49:22;;;;;;;8.90;4.13;;;;;;;;;;20982527;28;20217;-66
2022/11/30 09:59:31;;;;;;;8.40;3.77;;;;;;;;;;20981986;28;20193;-67
2022/11/30 10:09:54;;;;;;;8.97;4.03;;;;;;;;;;20980422;28;20745;-67
2022/11/30 10:19:59;;;;;;;7.83;3.67;;;;;;;;;;20986833;28;20684;-68
2022/11/30 10:30:01;;;;;;;7.70;3.77;;;;;;;;;;20994858;28;20615;-67
2022/11/30 10:40:04;;;;;;;10.37;4.33;;;;;;;;;;20991876;28;20233;-68
2022/11/30 10:50:06;;;;;;;8.43;3.87;;;7.70;99.90;;;;;;20987700;28;20262;-67
2022/11/30 11:00:12;;;;;;;8.03;3.70;;;;;;;;;;20991689;28;20217;-67
2022/11/30 11:10:18;;;;;;;8.97;4.37;;;;;;;;;;20992187;28;20263;-68
2022/11/30 11:20:28;;;;;;;10.17;4.07;;;;;;;;;;20988105;28;20217;-67
2022/11/30 11:30:30;;;;;;;7.17;3.80;;;;;;;;;;20987053;28;20204;-68
2022/11/30 11:40:33;;;;;;;6.73;3.37;;;;;;;;;;20970083;28;20217;-68
2022/11/30 11:50:38;;;;;;;7.03;3.43;;;;;;;;;;20949991;22;20226;-67
2022/11/30 12:00:40;;;;;;;4.90;2.83;;;;;;;;;;20787107;28;20245;-67
2022/11/30 12:10:59;;;;;;;4.63;2.60;;;7.40;99.90;;;;;;20810460;28;20284;-67
2022/11/30 12:21:36;;;;;;;4.40;2.93;;;7.90;99.90;;;;;;20810490;28;20210;-67
2022/11/30 12:31:47;;;;;;;6.87;2.73;;;;;;;;;;20790517;28;20229;-67
2022/11/30 12:41:53;;;;;;;5.77;3.40;;;8.10;99.90;;;;;;20807960;28;20218;-67
2022/11/30 12:52:14;;;;;;;5.93;3.33;;;;;;;;;;20825370;28;20238;-67
2022/11/30 13:02:28;;;;;;;4.70;2.87;;;;;;;;;;20823875;28;20264;-67
2022/11/30 13:12:37;;;;;;;4.60;3.17;;;8.10;99.90;;;;;;20859582;28;20263;-67
2022/11/30 13:23:04;;;;;;;3.60;2.43;;;8.10;99.90;;;;;;20839068;28;20214;-67
2022/11/30 13:33:25;;;;;;;6.50;3.63;;;;;;;;;;20861750;28;20584;-67
2022/11/30 13:43:29;;;;;;;4.17;3.03;;;;;;;;;;20869575;28;20275;-67
2022/11/30 13:53:34;;;;;;;4.80;2.50;;;8.00;99.90;;;;;;20881322;28;20271;-67
2022/11/30 14:03:37;;;;;;;6.03;3.07;;;;;;;;;;20879043;28;20244;-67
2022/11/30 14:13:39;;;;;;;4.73;2.90;;;;;;;;;;20851982;28;20930;-67
2022/11/30 14:24:00;;;;;;;4.93;3.33;;;;;;;;;;20850792;28;20283;-67
2022/11/30 14:34:08;;;;;;;4.23;2.67;;;;;;;;;;20882930;28;20290;-67
2022/11/30 14:44:12;;;;;;;15.83;8.33;;;8.10;99.90;;;;;;20883397;28;20206;-67
2022/11/30 14:54:51;;;;;;;5.90;3.53;;;8.00;99.90;;;;;;20850444;28;20277;-67
2022/11/30 15:04:55;;;;;;;3.97;2.70;;;8.00;99.90;;;;;;20896584;28;20214;-67
2022/11/30 15:15:02;;;;;;;5.03;3.17;;;;;;;;;;20880513;28;20276;-67
2022/11/30 15:25:04;;;;;;;4.90;2.90;;;7.90;99.90;;;;;;20879958;28;20206;-67
2022/11/30 15:35:06;;;;;;;5.00;2.83;;;;;;;;;;20878576;28;20241;-67
2022/11/30 15:45:30;;;;;;;4.90;3.27;;;8.00;99.90;;;;;;20878157;28;20221;-67
2022/11/30 15:55:42;;;;;;;5.07;2.97;;;;;;;;;;20871914;28;20708;-67
2022/11/30 16:05:55;;;;;;;6.67;4.40;;;;;;;;;;20874429;28;20290;-67
2022/11/30 16:15:59;;;;;;;4.97;3.03;;;;;;;;;;20877612;28;20255;-67
2022/11/30 16:26:01;;;;;;;6.30;3.60;;;;;;;;;;20825899;28;20697;-67
2022/11/30 16:36:07;;;;;;;5.43;3.23;;;7.90;99.90;;;;;;20830769;28;20222;-67
2022/11/30 16:46:10;;;;;;;6.47;3.23;;;;;;;;;;20885174;28;20287;-67
2022/11/30 16:56:13;;;;;;;5.93;2.87;;;7.90;99.90;;;;;;20868605;28;20575;-67
2022/11/30 17:06:18;;;;;;;5.87;2.80;;;;;;;;;;20870236;28;20260;-67
2022/11/30 17:16:19;;;;;;;4.53;2.90;;;;;;;;;;20870233;28;20267;-68
2022/11/30 17:26:21;;;;;;;7.37;3.10;;;7.90;99.90;;;;;;20886430;28;20206;-67
2022/11/30 17:36:25;;;;;;;4.77;2.97;;;;;;;;;;20861009;28;20217;-67
2022/11/30 17:46:27;;;;;;;3.70;2.40;;;;;;;;;;20864532;23;20273;-66
2022/11/30 17:56:29;;;;;;;4.90;3.10;;;;;;;;;;21056693;28;20228;-65
2022/11/30 18:06:30;;;;;;;4.57;3.33;;;;;;;;;;21054212;28;20230;-68
2022/11/30 18:16:37;;;;;;;3.97;2.83;;;7.80;99.90;;;;;;21053881;28;20294;-70
2022/11/30 18:26:39;;;;;;;4.37;2.87;;;7.70;99.90;;;;;;21024973;28;20216;-70
2022/11/30 18:36:40;;;;;;;3.33;1.80;;;;;;;;;;21054344;28;20233;-69
2022/11/30 18:46:42;;;;;;;8.33;4.90;;;;;;;;;;21120287;28;20227;-69
2022/11/30 18:56:44;;;;;;;3.53;2.30;;;;;;;;;;21161733;28;20212;-67
2022/11/30 19:06:45;;;;;;;4.50;3.00;;;;;;;;;;21158998;28;20678;-67
2022/11/30 19:16:47;;;;;;;4.93;2.83;;;;;;;;;;21073997;28;20768;-69
2022/11/30 19:26:49;;;;;;;3.60;2.10;;;;;;;;;;21055945;28;20608;-69
2022/11/30 19:36:50;;;;;;;4.03;1.80;;;;;;;;;;21073607;28;20276;-68
2022/11/30 19:46:52;;;;;;;2.63;1.67;;;;;;;;;;21072879;28;20298;-67
2022/11/30 19:56:56;;;;;;;2.60;1.60;;;;;;;;;;21071528;28;20576;-67
2022/11/30 20:06:59;;;;;;;2.30;1.60;;;;;;;;;;21070292;28;20231;-67
2022/11/30 20:17:01;;;;;;;2.97;2.07;;;;;;;;;;21073947;28;20232;-67
2022/11/30 20:27:03;;;;;;;2.70;1.90;;;;;;;;;;21072012;28;20270;-67
2022/11/30 20:37:05;;;;;;;3.17;1.73;;;;;;;;;;21070652;28;20285;-67
2022/11/30 20:47:07;;;;;;;3.60;2.00;;;;;;;;;;21073212;28;20686;-67
2022/11/30 20:57:09;;;;;;;2.63;1.57;;;;;;;;;;21028886;28;20286;-67
2022/11/30 21:07:11;;;;;;;4.03;2.27;;;;;;;;;;21065514;28;20228;-68
2022/11/30 21:17:13;;;;;;;2.70;1.47;;;;;;;;;;21068974;28;20220;-67
2022/11/30 21:27:14;;;;;;;3.63;1.80;;;7.40;99.90;;;;;;21068600;28;20213;-68
2022/11/30 21:37:16;;;;;;;2.23;1.57;;;;;;;;;;21067395;28;20637;-67
2022/11/30 21:47:18;;;;;;;2.97;1.80;;;;;;;;;;21066830;28;20220;-67
2022/11/30 21:57:20;;;;;;;3.93;1.67;;;7.20;99.90;;;;;;21066519;28;20220;-68
2022/11/30 22:07:30;;;;;;;3.10;1.70;;;;;;;;;;21066760;28;20707;-68
2022/11/30 22:17:32;;;;;;;2.57;1.20;;;;;;;;;;21082704;28;20225;-68
2022/11/30 22:27:35;;;;;;;2.50;1.30;;;;;;;;;;21081596;28;20294;-68
2022/11/30 22:37:38;;;;;;;2.83;1.20;;;;;;;;;;21064388;28;20246;-67
2022/11/30 22:47:40;;;;;;;2.97;1.50;;;;;;;;;;21080673;28;20240;-68
2022/11/30 22:57:41;;;;;;;2.67;1.53;;;;;;;;;;21079827;28;20219;-68
2022/11/30 23:07:43;;;;;;;2.63;1.77;;;;;;;;;;21060117;28;20225;-69
2022/11/30 23:17:44;;;;;;;2.80;1.67;;;;;;;;;;21077665;28;20266;-68
2022/11/30 23:27:46;;;;;;;5.03;2.40;;;;;;;;;;21060980;28;20216;-67
2022/11/30 23:37:48;;;;;;;3.93;2.23;;;6.80;99.90;;;;;;21074790;28;20711;-67
2022/11/30 23:47:50;;;;;;;3.97;2.33;;;;;;;;;;21086020;22;20229;-65
2022/11/30 23:57:52;;;;;;;4.43;2.33;;;;;;;;;;21075251;28;20250;-66
